createdAt,value
2018-09-14T00:01:22.492Z,15.15
2018-09-14T00:03:50.276Z,15.11
2018-09-14T00:06:18.094Z,15.16
2018-09-14T00:08:45.965Z,15.16
2018-09-14T00:11:13.803Z,15.14
2018-09-14T00:13:41.611Z,15.20
2018-09-14T00:16:09.399Z,15.14
2018-09-14T00:18:37.280Z,15.15
2018-09-14T00:21:05.363Z,15.14
2018-09-14T00:23:33.153Z,15.17
2018-09-14T00:26:00.979Z,15.13
2018-09-14T00:28:28.853Z,15.17
2018-09-14T00:30:56.840Z,15.19
2018-09-14T00:33:24.698Z,15.19
2018-09-14T00:35:52.511Z,15.12
2018-09-14T00:38:20.329Z,15.13
2018-09-14T00:40:48.167Z,15.12
2018-09-14T00:43:16.018Z,15.07
2018-09-14T00:45:43.848Z,15.08
2018-09-14T00:48:11.943Z,15.12
2018-09-14T00:50:39.815Z,15.08
2018-09-14T00:53:07.599Z,15.06
2018-09-14T00:55:35.487Z,15.08
2018-09-14T00:58:03.420Z,15.10
2018-09-14T01:00:31.207Z,15.06
2018-09-14T01:02:58.988Z,15.09
2018-09-14T01:05:26.771Z,14.99
2018-09-14T01:07:54.627Z,15.05
2018-09-14T01:10:22.448Z,14.99
2018-09-14T01:12:50.251Z,15.01
2018-09-14T01:15:18.076Z,14.99
2018-09-14T01:17:45.871Z,15.02
2018-09-14T01:20:13.726Z,14.99
2018-09-14T01:22:41.776Z,14.97
2018-09-14T01:25:09.687Z,15.00
2018-09-14T01:27:37.484Z,14.94
2018-09-14T01:30:05.953Z,14.86
2018-09-14T01:32:37.193Z,14.91
2018-09-14T01:35:09.675Z,14.91
2018-09-14T01:37:37.547Z,14.87
2018-09-14T01:40:05.464Z,14.85
2018-09-14T01:42:33.295Z,14.84
2018-09-14T01:45:01.115Z,14.81
2018-09-14T01:47:28.939Z,14.84
2018-09-14T01:49:56.809Z,14.81
2018-09-14T01:52:24.588Z,14.82
2018-09-14T01:54:52.436Z,14.77
2018-09-14T01:57:20.225Z,14.74
2018-09-14T01:59:48.061Z,14.78
2018-09-14T02:02:15.902Z,14.73
2018-09-14T02:04:43.705Z,14.75
2018-09-14T02:07:11.671Z,14.76
2018-09-14T02:09:39.483Z,14.77
2018-09-14T02:12:07.284Z,14.71
2018-09-14T02:14:35.138Z,14.70
2018-09-14T02:17:02.918Z,14.73
2018-09-14T02:19:34.508Z,14.70
2018-09-14T02:22:02.380Z,14.71
2018-09-14T02:24:30.164Z,14.69
2018-09-14T02:26:57.944Z,14.70
2018-09-14T02:29:25.763Z,14.73
2018-09-14T02:31:53.539Z,14.71
2018-09-14T02:34:21.344Z,14.68
2018-09-14T02:36:50.140Z,14.69
2018-09-14T02:39:17.945Z,14.71
2018-09-14T02:41:45.769Z,14.70
2018-09-14T02:44:13.643Z,14.71
2018-09-14T02:46:41.501Z,14.69
2018-09-14T02:49:09.329Z,14.69
2018-09-14T02:51:37.104Z,14.71
2018-09-14T02:54:05.005Z,14.67
2018-09-14T02:56:32.763Z,14.70
2018-09-14T02:59:00.521Z,14.69
2018-09-14T03:01:28.322Z,14.72
2018-09-14T03:03:56.183Z,14.69
2018-09-14T03:06:24.046Z,14.72
2018-09-14T03:08:51.883Z,14.68
2018-09-14T03:11:19.788Z,14.73
2018-09-14T03:13:47.620Z,14.74
2018-09-14T03:16:15.374Z,14.74
2018-09-14T03:18:43.382Z,14.67
2018-09-14T03:21:11.135Z,14.73
2018-09-14T03:23:38.980Z,14.72
2018-09-14T03:26:06.779Z,14.74
2018-09-14T03:28:34.644Z,14.73
2018-09-14T03:31:02.475Z,14.74
2018-09-14T03:33:30.249Z,14.69
2018-09-14T03:35:58.623Z,14.71
2018-09-14T03:38:26.671Z,14.73
2018-09-14T03:40:54.528Z,14.71
2018-09-14T03:43:22.393Z,14.71
2018-09-14T03:45:54.372Z,14.67
2018-09-14T03:48:22.206Z,14.64
2018-09-14T03:50:50.044Z,14.70
2018-09-14T03:53:18.342Z,14.75
2018-09-14T03:55:46.112Z,14.74
2018-09-14T03:58:13.911Z,14.69
2018-09-14T04:00:42.432Z,14.70
2018-09-14T04:03:10.359Z,14.70
2018-09-14T04:05:38.421Z,14.76
2018-09-14T04:08:06.408Z,14.70
2018-09-14T04:10:34.255Z,14.65
2018-09-14T04:13:02.028Z,14.68
2018-09-14T04:15:30.108Z,14.69
2018-09-14T04:17:58.278Z,14.63
2018-09-14T04:20:26.171Z,14.67
2018-09-14T04:22:54.075Z,14.67
2018-09-14T04:25:21.931Z,14.64
2018-09-14T04:27:49.889Z,14.56
2018-09-14T04:30:17.745Z,14.57
2018-09-14T04:32:45.620Z,14.64
2018-09-14T04:35:13.450Z,14.58
2018-09-14T04:37:41.295Z,14.53
2018-09-14T04:40:09.111Z,14.58
2018-09-14T04:42:36.929Z,14.62
2018-09-14T04:45:05.016Z,14.54
2018-09-14T04:47:33.223Z,14.54
2018-09-14T04:50:01.072Z,14.52
2018-09-14T04:52:28.895Z,14.48
2018-09-14T04:54:56.891Z,14.50
2018-09-14T04:57:24.924Z,14.50
2018-09-14T04:59:52.798Z,14.55
2018-09-14T05:02:20.789Z,14.45
2018-09-14T05:04:48.822Z,14.44
2018-09-14T05:07:16.835Z,14.40
2018-09-14T05:09:44.863Z,14.32
2018-09-14T05:12:12.894Z,14.38
2018-09-14T05:14:40.632Z,14.38
2018-09-14T05:17:08.699Z,14.36
2018-09-14T05:19:36.555Z,14.37
2018-09-14T05:22:04.498Z,14.38
2018-09-14T05:24:32.282Z,14.37
2018-09-14T05:27:00.041Z,14.38
2018-09-14T05:29:27.891Z,14.35
2018-09-14T05:31:55.707Z,14.35
2018-09-14T05:34:23.600Z,14.41
2018-09-14T05:36:51.452Z,14.41
2018-09-14T05:39:19.263Z,14.43
2018-09-14T05:41:47.035Z,14.48
2018-09-14T05:44:14.827Z,14.46
2018-09-14T05:46:42.606Z,14.45
2018-09-14T05:49:10.407Z,14.44
2018-09-14T05:51:38.181Z,14.51
2018-09-14T05:54:06.071Z,14.55
2018-09-14T05:56:38.678Z,14.56
2018-09-14T05:59:06.563Z,14.45
2018-09-14T06:01:34.371Z,14.61
2018-09-14T06:04:02.204Z,14.64
2018-09-14T06:06:30.200Z,14.65
2018-09-14T06:08:57.908Z,14.78
2018-09-14T06:11:25.748Z,14.79
2018-09-14T06:13:53.922Z,14.80
2018-09-14T06:16:21.744Z,14.86
2018-09-14T06:18:49.534Z,14.91
2018-09-14T06:21:17.361Z,15.01
2018-09-14T06:23:45.194Z,15.10
2018-09-14T06:26:13.021Z,15.15
2018-09-14T06:28:40.825Z,15.14
2018-09-14T06:31:08.903Z,15.25
2018-09-14T06:33:36.703Z,15.31
2018-09-14T06:36:04.499Z,15.43
2018-09-14T06:38:32.395Z,15.43
2018-09-14T06:41:00.232Z,15.47
2018-09-14T06:43:32.475Z,15.49
2018-09-14T06:46:00.383Z,15.64
2018-09-14T06:48:28.188Z,15.67
2018-09-14T06:50:55.982Z,15.73
2018-09-14T06:53:23.870Z,15.64
2018-09-14T06:55:51.643Z,15.64
2018-09-14T06:58:19.467Z,15.68
2018-09-14T07:00:47.344Z,15.60
2018-09-14T07:03:15.176Z,15.60
2018-09-14T07:05:42.988Z,15.59
2018-09-14T07:08:10.808Z,15.61
2018-09-14T07:10:38.938Z,15.74
2018-09-14T07:13:06.898Z,15.84
2018-09-14T07:15:36.275Z,15.92
2018-09-14T07:18:04.116Z,16.05
2018-09-14T07:20:31.899Z,16.18
2018-09-14T07:22:59.744Z,16.23
2018-09-14T07:25:27.541Z,16.38
2018-09-14T07:27:55.290Z,16.44
2018-09-14T07:30:23.112Z,16.58
2018-09-14T07:32:50.987Z,16.61
2018-09-14T07:35:18.755Z,16.69
2018-09-14T07:37:46.623Z,16.81
2018-09-14T07:40:14.429Z,16.77
2018-09-14T07:42:42.252Z,16.83
2018-09-14T07:45:10.020Z,16.97
2018-09-14T07:47:37.907Z,17.10
2018-09-14T07:50:05.884Z,17.07
2018-09-14T07:52:33.714Z,17.19
2018-09-14T07:55:01.554Z,17.11
2018-09-14T07:57:29.360Z,17.32
2018-09-14T07:59:57.239Z,17.47
2018-09-14T08:02:25.111Z,17.62
2018-09-14T08:04:52.932Z,17.72
2018-09-14T08:07:20.740Z,17.78
2018-09-14T08:09:48.652Z,17.69
2018-09-14T08:12:16.484Z,17.81
2018-09-14T08:14:44.307Z,18.01
2018-09-14T08:17:12.129Z,18.15
2018-09-14T08:19:39.999Z,18.19
2018-09-14T08:22:07.844Z,18.38
2018-09-14T08:24:35.678Z,18.62
2018-09-14T08:27:03.501Z,18.78
2018-09-14T08:29:31.228Z,18.91
2018-09-14T08:31:59.036Z,19.17
2018-09-14T08:34:30.609Z,19.22
2018-09-14T08:36:58.507Z,19.44
2018-09-14T08:39:26.259Z,19.24
2018-09-14T08:41:54.187Z,19.48
2018-09-14T08:44:21.995Z,19.64
2018-09-14T08:46:49.869Z,19.76
2018-09-14T08:49:17.675Z,19.86
2018-09-14T08:51:45.500Z,19.74
2018-09-14T08:54:13.264Z,19.75
2018-09-14T08:56:41.104Z,19.89
2018-09-14T08:59:08.982Z,20.16
2018-09-14T09:01:36.839Z,20.16
2018-09-14T09:04:04.719Z,20.44
2018-09-14T09:06:32.532Z,20.59
2018-09-14T09:09:00.411Z,20.54
2018-09-14T09:11:28.227Z,20.57
2018-09-14T09:13:56.039Z,20.76
2018-09-14T09:16:27.056Z,20.99
2018-09-14T09:18:54.860Z,21.24
2018-09-14T09:21:22.663Z,21.39
2018-09-14T09:23:50.584Z,21.45
2018-09-14T09:26:18.381Z,21.68
2018-09-14T09:28:46.179Z,21.71
2018-09-14T09:31:14.063Z,21.85
2018-09-14T09:33:41.829Z,21.96
2018-09-14T09:36:09.681Z,21.99
2018-09-14T09:38:37.575Z,22.11
2018-09-14T09:41:05.884Z,22.18
2018-09-14T09:43:33.964Z,22.17
2018-09-14T09:46:01.663Z,22.09
2018-09-14T09:48:29.520Z,22.09
2018-09-14T09:50:57.355Z,22.21
2018-09-14T09:53:25.172Z,22.17
2018-09-14T09:55:52.967Z,22.05
2018-09-14T09:58:24.310Z,21.95
2018-09-14T10:00:57.880Z,21.79
2018-09-14T10:03:31.568Z,21.76
2018-09-14T10:06:05.098Z,21.52
2018-09-14T10:08:32.944Z,21.55
2018-09-14T10:11:00.760Z,21.52
2018-09-14T10:13:28.614Z,21.43
2018-09-14T10:15:56.492Z,21.31
2018-09-14T10:18:24.307Z,21.33
2018-09-14T10:20:52.267Z,21.21
2018-09-14T10:23:20.084Z,21.10
2018-09-14T10:25:48.084Z,21.18
2018-09-14T10:28:15.913Z,21.23
2018-09-14T10:30:43.920Z,21.21
2018-09-14T10:33:11.967Z,21.33
2018-09-14T10:35:39.800Z,21.36
2018-09-14T10:38:07.626Z,21.43
2018-09-14T10:40:35.529Z,21.63
2018-09-14T10:43:03.420Z,21.90
2018-09-14T10:45:31.216Z,21.95
2018-09-14T10:50:44.984Z,22.67
2018-09-14T10:53:12.826Z,23.40
2018-09-14T10:55:40.716Z,23.56
2018-09-14T10:58:08.628Z,24.20
2018-09-14T11:00:36.482Z,24.87
2018-09-14T11:03:06.635Z,25.50
2018-09-14T11:05:34.464Z,26.11
2018-09-14T11:08:02.342Z,26.06
2018-09-14T11:10:30.147Z,26.40
2018-09-14T11:12:58.014Z,26.86
2018-09-14T11:15:25.939Z,27.36
2018-09-14T11:17:53.765Z,27.92
2018-09-14T11:20:21.492Z,28.40
2018-09-14T11:22:49.378Z,29.11
2018-09-14T11:25:17.198Z,29.56
2018-09-14T11:27:45.644Z,29.24
2018-09-14T11:30:13.422Z,29.33
2018-09-14T11:32:41.213Z,29.77
2018-09-14T11:35:08.967Z,30.05
2018-09-14T11:37:36.794Z,30.14
2018-09-14T11:40:04.735Z,30.38
2018-09-14T11:42:32.588Z,30.43
2018-09-14T11:45:00.360Z,30.27
2018-09-14T11:47:28.149Z,30.91
2018-09-14T11:49:55.968Z,30.31
2018-09-14T11:52:24.359Z,30.92
2018-09-14T11:54:52.260Z,30.54
2018-09-14T11:57:19.991Z,29.87
2018-09-14T11:59:47.754Z,29.70
2018-09-14T12:02:15.560Z,29.09
2018-09-14T12:04:43.484Z,28.75
2018-09-14T12:07:11.331Z,28.46
2018-09-14T12:09:39.714Z,28.06
2018-09-14T12:12:07.624Z,27.70
2018-09-14T12:14:35.424Z,27.33
2018-09-14T12:17:03.171Z,27.23
2018-09-14T12:19:31.156Z,27.18
2018-09-14T12:22:00.074Z,27.24
2018-09-14T12:24:28.396Z,27.37
2018-09-14T12:26:57.621Z,27.31
2018-09-14T12:29:25.572Z,27.75
2018-09-14T12:31:57.089Z,28.10
2018-09-14T12:34:24.968Z,28.40
2018-09-14T12:36:53.349Z,28.64
2018-09-14T12:39:21.683Z,28.56
2018-09-14T12:41:49.550Z,28.38
2018-09-14T12:44:17.851Z,28.13
2018-09-14T12:46:50.013Z,28.17
2018-09-14T12:49:18.019Z,28.18
2018-09-14T12:51:45.820Z,27.97
2018-09-14T12:54:13.571Z,27.92
2018-09-14T12:56:41.618Z,27.70
2018-09-14T12:59:09.487Z,27.64
2018-09-14T13:01:40.768Z,27.52
2018-09-14T13:04:08.940Z,27.42
2018-09-14T13:06:36.691Z,27.45
2018-09-14T13:09:10.629Z,27.19
2018-09-14T13:11:38.953Z,27.16
2018-09-14T13:14:07.061Z,27.07
2018-09-14T13:16:35.137Z,27.00
2018-09-14T13:19:03.023Z,26.94
2018-09-14T13:21:31.259Z,26.78
2018-09-14T13:23:59.047Z,26.73
2018-09-14T13:26:33.737Z,26.49
2018-09-14T13:29:01.899Z,26.28
2018-09-14T13:31:29.655Z,26.13
2018-09-14T13:33:57.589Z,26.16
2018-09-14T13:36:25.351Z,26.20
2018-09-14T13:38:53.164Z,26.17
2018-09-14T13:41:20.977Z,26.18
2018-09-14T13:43:48.808Z,26.18
2018-09-14T13:46:18.785Z,26.19
2018-09-14T13:48:46.678Z,26.15
2018-09-14T13:51:14.598Z,26.03
2018-09-14T13:53:42.503Z,25.88
2018-09-14T13:56:10.332Z,26.00
2018-09-14T13:58:38.095Z,25.84
2018-09-14T14:01:06.288Z,25.74
2018-09-14T14:03:34.003Z,25.60
2018-09-14T14:06:01.790Z,25.62
2018-09-14T14:08:29.557Z,25.55
2018-09-14T14:10:57.356Z,25.46
2018-09-14T14:13:25.130Z,25.41
2018-09-14T14:15:52.945Z,25.19
2018-09-14T14:18:20.752Z,24.89
2018-09-14T14:20:48.581Z,24.92
2018-09-14T14:23:16.438Z,24.75
2018-09-14T14:25:44.275Z,24.68
2018-09-14T14:28:12.056Z,24.68
2018-09-14T14:30:39.916Z,24.63
2018-09-14T14:33:08.127Z,24.63
2018-09-14T14:35:40.657Z,24.54
2018-09-14T14:38:08.467Z,24.59
2018-09-14T14:40:36.336Z,24.66
2018-09-14T14:43:04.172Z,24.64
2018-09-14T14:45:32.055Z,24.60
2018-09-14T14:47:59.919Z,24.55
2018-09-14T14:50:27.779Z,24.51
2018-09-14T14:52:55.700Z,24.47
2018-09-14T14:55:23.549Z,24.46
2018-09-14T14:57:51.356Z,24.51
2018-09-14T15:00:19.196Z,24.51
2018-09-14T15:02:47.060Z,24.36
2018-09-14T15:05:14.916Z,24.29
2018-09-14T15:07:42.775Z,24.15
2018-09-14T15:10:10.673Z,23.93
2018-09-14T15:12:38.456Z,23.99
2018-09-14T15:15:06.356Z,23.92
2018-09-14T15:17:34.119Z,24.06
2018-09-14T15:20:01.976Z,24.13
2018-09-14T15:22:29.783Z,24.12
2018-09-14T15:24:57.580Z,24.14
2018-09-14T15:27:25.394Z,24.06
2018-09-14T15:29:53.245Z,24.06
2018-09-14T15:32:21.036Z,24.02
2018-09-14T15:34:48.943Z,24.03
2018-09-14T15:37:16.793Z,23.89
2018-09-14T15:39:44.676Z,23.85
2018-09-14T15:42:12.678Z,23.85
2018-09-14T15:44:40.460Z,23.87
2018-09-14T15:47:11.635Z,23.89
2018-09-14T15:49:39.514Z,23.90
2018-09-14T15:52:07.432Z,23.84
2018-09-14T15:54:35.356Z,23.88
2018-09-14T15:57:03.188Z,23.93
2018-09-14T15:59:30.954Z,23.82
2018-09-14T16:01:58.706Z,23.58
2018-09-14T16:04:27.174Z,23.33
2018-09-14T16:06:54.998Z,23.30
2018-09-14T16:09:22.901Z,23.28
2018-09-14T16:11:50.683Z,23.30
2018-09-14T16:14:18.467Z,23.21
2018-09-14T16:16:46.247Z,23.16
2018-09-14T16:19:14.025Z,23.13
2018-09-14T16:21:41.753Z,23.06
2018-09-14T16:24:09.591Z,23.06
2018-09-14T16:26:37.480Z,22.94
2018-09-14T16:29:05.387Z,22.91
2018-09-14T16:31:33.299Z,22.90
2018-09-14T16:34:01.139Z,22.93
2018-09-14T16:36:28.947Z,22.89
2018-09-14T16:38:56.780Z,22.78
2018-09-14T16:41:24.528Z,22.67
2018-09-14T16:43:52.419Z,22.55
2018-09-14T16:46:20.164Z,22.53
2018-09-14T16:48:48.032Z,22.45
2018-09-14T16:51:20.250Z,22.47
2018-09-14T16:53:48.228Z,22.46
2018-09-14T16:56:15.983Z,22.34
2018-09-14T16:58:43.866Z,22.26
2018-09-14T17:01:11.694Z,22.20
2018-09-14T17:03:39.551Z,22.20
2018-09-14T17:06:07.392Z,22.12
2018-09-14T17:08:35.167Z,22.09
2018-09-14T17:11:03.006Z,21.98
2018-09-14T17:13:30.801Z,21.99
2018-09-14T17:15:58.905Z,21.96
2018-09-14T17:18:28.463Z,21.95
2018-09-14T17:20:58.836Z,21.91
2018-09-14T17:23:26.588Z,21.91
2018-09-14T17:25:54.516Z,21.86
2018-09-14T17:28:22.343Z,21.78
2018-09-14T17:30:50.490Z,21.65
2018-09-14T17:33:18.190Z,21.73
2018-09-14T17:35:51.421Z,21.65
2018-09-14T17:38:19.458Z,21.48
2018-09-14T17:40:47.142Z,21.51
2018-09-14T17:43:15.028Z,21.40
2018-09-14T17:45:42.920Z,21.26
2018-09-14T17:48:10.723Z,21.34
2018-09-14T17:50:38.500Z,21.33
2018-09-14T17:53:06.348Z,21.38
2018-09-14T17:55:34.164Z,21.24
2018-09-14T17:58:02.039Z,21.06
2018-09-14T18:00:29.892Z,21.06
2018-09-14T18:02:57.705Z,20.97
2018-09-14T18:05:25.540Z,20.89
2018-09-14T18:07:53.360Z,20.98
2018-09-14T18:10:23.126Z,20.80
2018-09-14T18:12:51.072Z,20.75
2018-09-14T18:15:18.874Z,20.74
2018-09-14T18:17:46.861Z,20.68
2018-09-14T18:20:14.691Z,20.68
2018-09-14T18:22:42.514Z,20.62
2018-09-14T18:25:10.564Z,20.47
2018-09-14T18:27:38.989Z,20.44
2018-09-14T18:30:07.868Z,20.45
2018-09-14T18:32:35.872Z,20.44
2018-09-14T18:35:03.998Z,20.41
2018-09-14T18:37:31.793Z,20.29
2018-09-14T18:39:59.763Z,20.31
2018-09-14T18:42:27.588Z,20.35
2018-09-14T18:44:55.403Z,20.29
2018-09-14T18:47:23.847Z,20.30
2018-09-14T18:49:51.687Z,20.18
2018-09-14T18:52:19.486Z,20.15
2018-09-14T18:54:47.387Z,20.12
2018-09-14T18:57:15.438Z,20.12
2018-09-14T18:59:43.557Z,20.04
2018-09-14T19:02:11.481Z,20.01
2018-09-14T19:04:39.380Z,20.02
2018-09-14T19:07:07.425Z,19.99
2018-09-14T19:09:35.377Z,20.11
2018-09-14T19:12:03.274Z,20.08
2018-09-14T19:14:31.183Z,19.89
2018-09-14T19:16:59.052Z,19.78
2018-09-14T19:19:26.925Z,19.79
2018-09-14T19:21:54.715Z,19.75
2018-09-14T19:24:22.586Z,19.72
2018-09-14T19:26:50.537Z,19.60
2018-09-14T19:29:18.468Z,19.50
2018-09-14T19:31:46.283Z,19.47
2018-09-14T19:34:16.010Z,19.55
2018-09-14T19:36:44.909Z,19.47
2018-09-14T19:39:13.445Z,19.36
2018-09-14T19:41:41.292Z,19.35
2018-09-14T19:44:09.327Z,19.25
2018-09-14T19:46:37.137Z,19.19
2018-09-14T19:49:05.137Z,19.12
2018-09-14T19:51:32.995Z,19.08
2018-09-14T19:54:00.915Z,19.17
2018-09-14T19:56:28.805Z,19.11
2018-09-14T19:58:57.393Z,19.03
2018-09-14T20:01:25.283Z,18.95
2018-09-14T20:03:53.329Z,19.02
2018-09-14T20:06:21.233Z,18.97
2018-09-14T20:08:49.034Z,18.91
2018-09-14T20:11:16.849Z,18.97
2018-09-14T20:13:44.626Z,18.98
2018-09-14T20:16:12.755Z,18.91
2018-09-14T20:18:40.615Z,18.85
2018-09-14T20:21:08.333Z,18.82
2018-09-14T20:23:36.143Z,18.78
2018-09-14T20:26:04.339Z,18.87
2018-09-14T20:28:32.179Z,18.85
2018-09-14T20:31:00.120Z,18.77
2018-09-14T20:33:27.988Z,18.76
2018-09-14T20:35:56.380Z,18.81
2018-09-14T20:38:24.360Z,18.75
2018-09-14T20:40:52.152Z,18.82
2018-09-14T20:43:20.054Z,18.68
2018-09-14T20:45:47.899Z,18.63
2018-09-14T20:48:15.690Z,18.51
2018-09-14T20:50:43.600Z,18.42
2018-09-14T20:53:11.419Z,18.25
2018-09-14T20:55:39.316Z,18.18
2018-09-14T20:58:07.147Z,18.11
2018-09-14T21:00:34.920Z,18.08
2018-09-14T21:03:03.560Z,18.17
2018-09-14T21:05:31.473Z,18.14
2018-09-14T21:07:59.455Z,18.05
2018-09-14T21:10:27.293Z,18.10
2018-09-14T21:12:58.920Z,17.90
2018-09-14T21:15:26.905Z,17.90
2018-09-14T21:17:54.912Z,17.89
2018-09-14T21:20:22.718Z,17.88
2018-09-14T21:22:50.583Z,17.81
2018-09-14T21:25:18.419Z,17.84
2018-09-14T21:27:46.324Z,17.89
2018-09-14T21:30:14.192Z,17.86
2018-09-14T21:32:41.986Z,17.85
2018-09-14T21:35:09.884Z,17.66
2018-09-14T21:37:37.992Z,17.61
2018-09-14T21:40:09.264Z,17.53
2018-09-14T21:42:37.073Z,17.56
2018-09-14T21:45:05.297Z,17.68
2018-09-14T21:47:33.128Z,17.66
2018-09-14T21:50:00.868Z,17.56
2018-09-14T21:52:28.779Z,17.59
2018-09-14T21:54:57.311Z,17.54
2018-09-14T21:57:25.144Z,17.54
2018-09-14T21:59:53.053Z,17.46
2018-09-14T22:02:20.902Z,17.46
2018-09-14T22:04:48.659Z,17.43
2018-09-14T22:07:16.454Z,17.40
2018-09-14T22:09:44.768Z,17.38
2018-09-14T22:12:12.581Z,17.28
2018-09-14T22:14:40.420Z,17.20
2018-09-14T22:17:08.303Z,17.23
2018-09-14T22:19:36.143Z,17.15
2018-09-14T22:22:03.986Z,17.06
2018-09-14T22:24:31.731Z,17.09
2018-09-14T22:26:59.535Z,17.06
2018-09-14T22:29:27.369Z,17.09
2018-09-14T22:31:55.254Z,17.13
2018-09-14T22:34:23.017Z,17.08
2018-09-14T22:36:50.842Z,17.16
2018-09-14T22:39:18.692Z,17.15
2018-09-14T22:41:46.519Z,17.10
2018-09-14T22:44:14.293Z,17.14
2018-09-14T22:46:42.143Z,17.10
2018-09-14T22:49:09.990Z,17.07
2018-09-14T22:51:37.871Z,16.99
2018-09-14T22:54:05.743Z,16.90
2018-09-14T22:56:33.588Z,16.80
2018-09-14T22:59:01.378Z,16.74
2018-09-14T23:01:30.621Z,16.71
2018-09-14T23:03:59.076Z,16.73
2018-09-14T23:06:26.872Z,16.62
2018-09-14T23:08:54.715Z,16.56
2018-09-14T23:11:22.470Z,16.49
2018-09-14T23:13:50.283Z,16.52
2018-09-14T23:16:18.106Z,16.48
2018-09-14T23:18:45.952Z,16.49
2018-09-14T23:21:13.786Z,16.41
2018-09-14T23:23:41.569Z,16.34
2018-09-14T23:26:12.801Z,16.33
2018-09-14T23:28:40.712Z,16.27
2018-09-14T23:31:08.483Z,16.21
2018-09-14T23:33:36.370Z,16.11
2018-09-14T23:36:04.246Z,16.08
2018-09-14T23:38:32.085Z,16.08
2018-09-14T23:40:59.911Z,15.94
2018-09-14T23:43:27.755Z,15.89
2018-09-14T23:45:55.523Z,15.74
2018-09-14T23:48:23.314Z,15.82
2018-09-14T23:50:51.148Z,15.69
2018-09-14T23:53:18.952Z,15.64
2018-09-14T23:55:46.731Z,15.64
2018-09-14T23:58:14.488Z,15.50
